sensor_id;sensor_type;location;lat;lon;timestamp;P1;durP1;ratioP1;P2;durP2;ratioP2
55136;SDS011;41032;47.818;-3.732;2022-10-30T00:00:58;19.65;;;8.18;;
55136;SDS011;41032;47.818;-3.732;2022-10-30T00:03:27;18.73;;;8.55;;
55136;SDS011;41032;47.818;-3.732;2022-10-30T00:05:55;18.17;;;8.05;;
55136;SDS011;41032;47.818;-3.732;2022-10-30T00:08:24;18.90;;;7.65;;
55136;SDS011;41032;47.818;-3.732;2022-10-30T00:10:52;16.70;;;7.50;;
55136;SDS011;41032;47.818;-3.732;2022-10-30T00:13:21;15.70;;;7.53;;
55136;SDS011;41032;47.818;-3.732;2022-10-30T00:15:50;15.38;;;6.60;;
55136;SDS011;41032;47.818;-3.732;2022-10-30T00:18:19;17.35;;;7.18;;
55136;SDS011;41032;47.818;-3.732;2022-10-30T00:20:47;20.50;;;7.32;;
55136;SDS011;41032;47.818;-3.732;2022-10-30T00:23:16;18.65;;;7.05;;
55136;SDS011;41032;47.818;-3.732;2022-10-30T00:25:43;13.18;;;6.30;;
55136;SDS011;41032;47.818;-3.732;2022-10-30T00:28:12;13.45;;;6.22;;
55136;SDS011;41032;47.818;-3.732;2022-10-30T00:30:40;16.38;;;6.38;;
55136;SDS011;41032;47.818;-3.732;2022-10-30T00:33:09;17.30;;;6.22;;
55136;SDS011;41032;47.818;-3.732;2022-10-30T00:35:37;13.27;;;5.70;;
55136;SDS011;41032;47.818;-3.732;2022-10-30T00:38:13;12.02;;;5.72;;
55136;SDS011;41032;47.818;-3.732;2022-10-30T00:40:41;14.32;;;5.70;;
55136;SDS011;41032;47.818;-3.732;2022-10-30T00:43:51;13.48;;;5.07;;
55136;SDS011;41032;47.818;-3.732;2022-10-30T00:46:06;14.80;;;6.70;;
55136;SDS011;41032;47.818;-3.732;2022-10-30T00:48:46;12.10;;;4.82;;
55136;SDS011;41032;47.818;-3.732;2022-10-30T00:51:19;12.32;;;4.90;;
55136;SDS011;41032;47.818;-3.732;2022-10-30T00:53:48;14.57;;;6.13;;
55136;SDS011;41032;47.818;-3.732;2022-10-30T00:56:17;13.85;;;5.53;;
55136;SDS011;41032;47.818;-3.732;2022-10-30T00:58:48;11.05;;;5.10;;
55136;SDS011;41032;47.818;-3.732;2022-10-30T01:01:20;12.90;;;5.13;;
55136;SDS011;41032;47.818;-3.732;2022-10-30T01:03:52;12.50;;;4.60;;
55136;SDS011;41032;47.818;-3.732;2022-10-30T01:06:22;10.18;;;4.07;;
55136;SDS011;41032;47.818;-3.732;2022-10-30T01:08:51;12.40;;;4.25;;
55136;SDS011;41032;47.818;-3.732;2022-10-30T01:11:21;15.38;;;5.35;;
55136;SDS011;41032;47.818;-3.732;2022-10-30T01:13:49;12.48;;;4.95;;
55136;SDS011;41032;47.818;-3.732;2022-10-30T01:22:01;12.05;;;4.72;;
55136;SDS011;41032;47.818;-3.732;2022-10-30T01:38:38;10.93;;;4.50;;
55136;SDS011;41032;47.818;-3.732;2022-10-30T01:41:10;11.60;;;4.20;;
55136;SDS011;41032;47.818;-3.732;2022-10-30T01:43:38;10.27;;;3.92;;
55136;SDS011;41032;47.818;-3.732;2022-10-30T01:59:31;7.43;;;3.15;;
55136;SDS011;41032;47.818;-3.732;2022-10-30T02:02:04;11.10;;;3.33;;
55136;SDS011;41032;47.818;-3.732;2022-10-30T02:04:32;7.28;;;2.97;;
55136;SDS011;41032;47.818;-3.732;2022-10-30T02:07:03;9.10;;;4.20;;
55136;SDS011;41032;47.818;-3.732;2022-10-30T02:09:31;9.25;;;3.38;;
55136;SDS011;41032;47.818;-3.732;2022-10-30T02:12:00;8.35;;;3.22;;
55136;SDS011;41032;47.818;-3.732;2022-10-30T02:14:30;7.88;;;3.03;;
55136;SDS011;41032;47.818;-3.732;2022-10-30T02:17:01;9.25;;;2.72;;
55136;SDS011;41032;47.818;-3.732;2022-10-30T02:19:31;8.52;;;2.75;;
55136;SDS011;41032;47.818;-3.732;2022-10-30T02:22:00;9.40;;;2.83;;
55136;SDS011;41032;47.818;-3.732;2022-10-30T02:24:28;7.93;;;3.60;;
55136;SDS011;41032;47.818;-3.732;2022-10-30T02:26:57;7.15;;;3.30;;
55136;SDS011;41032;47.818;-3.732;2022-10-30T02:29:26;10.77;;;3.88;;
55136;SDS011;41032;47.818;-3.732;2022-10-30T02:31:54;9.93;;;3.10;;
55136;SDS011;41032;47.818;-3.732;2022-10-30T02:34:23;8.07;;;2.70;;
55136;SDS011;41032;47.818;-3.732;2022-10-30T02:36:52;8.90;;;2.67;;
55136;SDS011;41032;47.818;-3.732;2022-10-30T02:39:20;8.05;;;2.78;;
55136;SDS011;41032;47.818;-3.732;2022-10-30T02:41:49;9.50;;;3.20;;
55136;SDS011;41032;47.818;-3.732;2022-10-30T02:44:17;7.05;;;2.75;;
55136;SDS011;41032;47.818;-3.732;2022-10-30T02:46:46;9.13;;;2.88;;
55136;SDS011;41032;47.818;-3.732;2022-10-30T02:49:14;8.07;;;2.83;;
55136;SDS011;41032;47.818;-3.732;2022-10-30T02:51:43;8.35;;;2.88;;
55136;SDS011;41032;47.818;-3.732;2022-10-30T02:54:11;7.80;;;2.50;;
55136;SDS011;41032;47.818;-3.732;2022-10-30T02:56:39;10.70;;;3.75;;
55136;SDS011;41032;47.818;-3.732;2022-10-30T02:59:07;8.30;;;2.35;;
55136;SDS011;41032;47.818;-3.732;2022-10-30T03:01:36;6.88;;;2.08;;
55136;SDS011;41032;47.818;-3.732;2022-10-30T03:04:04;7.03;;;2.65;;
55136;SDS011;41032;47.818;-3.732;2022-10-30T03:06:32;9.38;;;2.60;;
55136;SDS011;41032;47.818;-3.732;2022-10-30T03:09:01;10.25;;;2.63;;
55136;SDS011;41032;47.818;-3.732;2022-10-30T03:11:32;9.88;;;2.88;;
55136;SDS011;41032;47.818;-3.732;2022-10-30T03:14:00;7.35;;;2.35;;
55136;SDS011;41032;47.818;-3.732;2022-10-30T03:16:29;6.63;;;2.50;;
55136;SDS011;41032;47.818;-3.732;2022-10-30T03:18:58;5.28;;;2.05;;
55136;SDS011;41032;47.818;-3.732;2022-10-30T03:21:27;6.05;;;2.13;;
55136;SDS011;41032;47.818;-3.732;2022-10-30T03:23:56;8.00;;;2.22;;
55136;SDS011;41032;47.818;-3.732;2022-10-30T03:26:24;8.57;;;2.28;;
55136;SDS011;41032;47.818;-3.732;2022-10-30T03:28:53;8.70;;;2.63;;
55136;SDS011;41032;47.818;-3.732;2022-10-30T03:31:21;5.65;;;1.83;;
55136;SDS011;41032;47.818;-3.732;2022-10-30T03:33:50;7.13;;;2.20;;
55136;SDS011;41032;47.818;-3.732;2022-10-30T03:36:18;6.80;;;2.33;;
55136;SDS011;41032;47.818;-3.732;2022-10-30T03:38:47;5.32;;;1.98;;
55136;SDS011;41032;47.818;-3.732;2022-10-30T03:41:15;6.15;;;1.83;;
55136;SDS011;41032;47.818;-3.732;2022-10-30T03:43:44;5.32;;;1.67;;
55136;SDS011;41032;47.818;-3.732;2022-10-30T03:46:12;6.90;;;2.00;;
55136;SDS011;41032;47.818;-3.732;2022-10-30T03:48:41;5.18;;;1.98;;
55136;SDS011;41032;47.818;-3.732;2022-10-30T03:51:09;8.68;;;2.53;;
55136;SDS011;41032;47.818;-3.732;2022-10-30T03:53:38;7.53;;;2.05;;
55136;SDS011;41032;47.818;-3.732;2022-10-30T03:56:06;7.45;;;2.45;;
55136;SDS011;41032;47.818;-3.732;2022-10-30T03:58:35;10.98;;;2.85;;
55136;SDS011;41032;47.818;-3.732;2022-10-30T04:01:04;6.28;;;1.67;;
55136;SDS011;41032;47.818;-3.732;2022-10-30T04:03:33;5.85;;;1.65;;
55136;SDS011;41032;47.818;-3.732;2022-10-30T04:06:02;6.20;;;2.42;;
55136;SDS011;41032;47.818;-3.732;2022-10-30T04:08:31;8.23;;;2.67;;
55136;SDS011;41032;47.818;-3.732;2022-10-30T04:11:00;8.40;;;2.50;;
55136;SDS011;41032;47.818;-3.732;2022-10-30T04:20:13;6.10;;;1.95;;
55136;SDS011;41032;47.818;-3.732;2022-10-30T04:22:42;9.68;;;2.15;;
55136;SDS011;41032;47.818;-3.732;2022-10-30T04:25:13;5.18;;;1.73;;
55136;SDS011;41032;47.818;-3.732;2022-10-30T04:34:25;9.77;;;2.15;;
55136;SDS011;41032;47.818;-3.732;2022-10-30T04:36:55;6.47;;;1.90;;
55136;SDS011;41032;47.818;-3.732;2022-10-30T04:39:23;8.95;;;2.55;;
55136;SDS011;41032;47.818;-3.732;2022-10-30T04:41:51;9.20;;;2.15;;
55136;SDS011;41032;47.818;-3.732;2022-10-30T04:44:20;6.50;;;2.03;;
55136;SDS011;41032;47.818;-3.732;2022-10-30T04:46:49;5.85;;;1.90;;
55136;SDS011;41032;47.818;-3.732;2022-10-30T04:49:17;7.35;;;1.98;;
55136;SDS011;41032;47.818;-3.732;2022-10-30T04:51:46;6.47;;;2.10;;
55136;SDS011;41032;47.818;-3.732;2022-10-30T04:54:14;8.40;;;2.00;;
55136;SDS011;41032;47.818;-3.732;2022-10-30T04:56:43;11.25;;;2.60;;
55136;SDS011;41032;47.818;-3.732;2022-10-30T04:59:11;4.95;;;1.70;;
55136;SDS011;41032;47.818;-3.732;2022-10-30T05:01:40;5.45;;;1.70;;
55136;SDS011;41032;47.818;-3.732;2022-10-30T05:04:08;9.13;;;1.95;;
55136;SDS011;41032;47.818;-3.732;2022-10-30T05:06:36;6.25;;;1.83;;
55136;SDS011;41032;47.818;-3.732;2022-10-30T05:09:05;9.25;;;2.28;;
55136;SDS011;41032;47.818;-3.732;2022-10-30T05:11:34;5.45;;;1.85;;
55136;SDS011;41032;47.818;-3.732;2022-10-30T05:14:01;7.45;;;2.08;;
55136;SDS011;41032;47.818;-3.732;2022-10-30T05:16:30;5.63;;;1.60;;
55136;SDS011;41032;47.818;-3.732;2022-10-30T05:18:57;5.93;;;1.52;;
55136;SDS011;41032;47.818;-3.732;2022-10-30T05:21:26;6.75;;;1.65;;
55136;SDS011;41032;47.818;-3.732;2022-10-30T05:23:54;10.63;;;2.28;;
55136;SDS011;41032;47.818;-3.732;2022-10-30T05:26:21;5.05;;;1.40;;
55136;SDS011;41032;47.818;-3.732;2022-10-30T05:28:49;6.32;;;2.28;;
55136;SDS011;41032;47.818;-3.732;2022-10-30T05:31:17;3.97;;;1.58;;
55136;SDS011;41032;47.818;-3.732;2022-10-30T05:33:45;7.40;;;1.70;;
55136;SDS011;41032;47.818;-3.732;2022-10-30T05:36:14;9.00;;;2.42;;
55136;SDS011;41032;47.818;-3.732;2022-10-30T05:38:43;6.63;;;1.55;;
55136;SDS011;41032;47.818;-3.732;2022-10-30T05:41:11;5.55;;;1.35;;
55136;SDS011;41032;47.818;-3.732;2022-10-30T05:43:40;4.75;;;1.50;;
55136;SDS011;41032;47.818;-3.732;2022-10-30T05:46:08;10.82;;;2.92;;
55136;SDS011;41032;47.818;-3.732;2022-10-30T05:48:36;8.25;;;1.95;;
55136;SDS011;41032;47.818;-3.732;2022-10-30T05:51:04;6.55;;;1.95;;
55136;SDS011;41032;47.818;-3.732;2022-10-30T05:53:33;5.03;;;2.10;;
55136;SDS011;41032;47.818;-3.732;2022-10-30T05:56:01;3.70;;;1.10;;
55136;SDS011;41032;47.818;-3.732;2022-10-30T05:58:30;6.95;;;1.67;;
55136;SDS011;41032;47.818;-3.732;2022-10-30T06:00:59;5.50;;;1.60;;
55136;SDS011;41032;47.818;-3.732;2022-10-30T06:03:30;6.13;;;1.70;;
55136;SDS011;41032;47.818;-3.732;2022-10-30T06:05:59;6.88;;;1.52;;
55136;SDS011;41032;47.818;-3.732;2022-10-30T06:08:27;5.22;;;1.67;;
55136;SDS011;41032;47.818;-3.732;2022-10-30T06:10:56;5.43;;;1.38;;
55136;SDS011;41032;47.818;-3.732;2022-10-30T06:13:25;7.10;;;1.80;;
55136;SDS011;41032;47.818;-3.732;2022-10-30T06:15:54;4.40;;;1.50;;
55136;SDS011;41032;47.818;-3.732;2022-10-30T06:18:23;5.20;;;1.15;;
55136;SDS011;41032;47.818;-3.732;2022-10-30T06:20:53;5.60;;;1.48;;
55136;SDS011;41032;47.818;-3.732;2022-10-30T06:23:21;5.20;;;1.63;;
55136;SDS011;41032;47.818;-3.732;2022-10-30T06:25:50;5.72;;;1.73;;
55136;SDS011;41032;47.818;-3.732;2022-10-30T06:28:18;6.53;;;1.35;;
55136;SDS011;41032;47.818;-3.732;2022-10-30T06:30:47;6.18;;;1.67;;
55136;SDS011;41032;47.818;-3.732;2022-10-30T06:33:15;5.03;;;1.42;;
55136;SDS011;41032;47.818;-3.732;2022-10-30T06:35:44;4.13;;;1.38;;
55136;SDS011;41032;47.818;-3.732;2022-10-30T06:38:15;4.68;;;1.33;;
55136;SDS011;41032;47.818;-3.732;2022-10-30T06:40:43;6.03;;;1.80;;
55136;SDS011;41032;47.818;-3.732;2022-10-30T06:43:12;7.75;;;1.70;;
55136;SDS011;41032;47.818;-3.732;2022-10-30T06:45:40;4.50;;;1.05;;
55136;SDS011;41032;47.818;-3.732;2022-10-30T06:48:09;6.00;;;1.60;;
55136;SDS011;41032;47.818;-3.732;2022-10-30T06:50:37;7.03;;;1.88;;
55136;SDS011;41032;47.818;-3.732;2022-10-30T06:53:07;4.50;;;1.35;;
55136;SDS011;41032;47.818;-3.732;2022-10-30T06:55:35;5.85;;;1.80;;
55136;SDS011;41032;47.818;-3.732;2022-10-30T06:58:04;5.25;;;1.20;;
55136;SDS011;41032;47.818;-3.732;2022-10-30T07:00:32;4.50;;;1.38;;
55136;SDS011;41032;47.818;-3.732;2022-10-30T07:03:01;6.18;;;1.45;;
55136;SDS011;41032;47.818;-3.732;2022-10-30T07:05:29;3.03;;;1.10;;
55136;SDS011;41032;47.818;-3.732;2022-10-30T07:07:58;4.40;;;1.17;;
55136;SDS011;41032;47.818;-3.732;2022-10-30T07:10:28;5.47;;;1.38;;
55136;SDS011;41032;47.818;-3.732;2022-10-30T07:12:56;5.15;;;1.42;;
55136;SDS011;41032;47.818;-3.732;2022-10-30T07:15:43;4.10;;;1.23;;
55136;SDS011;41032;47.818;-3.732;2022-10-30T07:18:11;6.65;;;1.25;;
55136;SDS011;41032;47.818;-3.732;2022-10-30T07:20:40;3.75;;;1.08;;
55136;SDS011;41032;47.818;-3.732;2022-10-30T07:23:08;3.20;;;0.98;;
55136;SDS011;41032;47.818;-3.732;2022-10-30T07:25:37;5.63;;;1.50;;
55136;SDS011;41032;47.818;-3.732;2022-10-30T07:28:05;4.57;;;1.52;;
55136;SDS011;41032;47.818;-3.732;2022-10-30T07:30:34;4.97;;;1.20;;
55136;SDS011;41032;47.818;-3.732;2022-10-30T07:33:03;5.78;;;1.63;;
55136;SDS011;41032;47.818;-3.732;2022-10-30T07:35:33;4.93;;;1.40;;
55136;SDS011;41032;47.818;-3.732;2022-10-30T07:38:01;4.90;;;1.38;;
55136;SDS011;41032;47.818;-3.732;2022-10-30T07:40:30;10.32;;;1.23;;
55136;SDS011;41032;47.818;-3.732;2022-10-30T07:42:59;4.63;;;1.08;;
55136;SDS011;41032;47.818;-3.732;2022-10-30T07:45:28;5.20;;;1.60;;
55136;SDS011;41032;47.818;-3.732;2022-10-30T07:47:57;6.43;;;1.77;;
55136;SDS011;41032;47.818;-3.732;2022-10-30T07:50:26;4.13;;;1.27;;
55136;SDS011;41032;47.818;-3.732;2022-10-30T07:52:55;6.75;;;1.30;;
55136;SDS011;41032;47.818;-3.732;2022-10-30T07:55:23;2.67;;;0.80;;
55136;SDS011;41032;47.818;-3.732;2022-10-30T07:57:52;5.00;;;1.58;;
55136;SDS011;41032;47.818;-3.732;2022-10-30T08:00:21;3.50;;;1.42;;
55136;SDS011;41032;47.818;-3.732;2022-10-30T08:02:49;4.70;;;1.45;;
55136;SDS011;41032;47.818;-3.732;2022-10-30T08:05:17;4.55;;;1.17;;
55136;SDS011;41032;47.818;-3.732;2022-10-30T08:07:45;6.45;;;1.58;;
55136;SDS011;41032;47.818;-3.732;2022-10-30T08:10:14;5.10;;;1.25;;
55136;SDS011;41032;47.818;-3.732;2022-10-30T08:12:42;4.43;;;1.15;;
55136;SDS011;41032;47.818;-3.732;2022-10-30T08:15:12;8.65;;;1.65;;
55136;SDS011;41032;47.818;-3.732;2022-10-30T08:17:41;5.75;;;1.20;;
55136;SDS011;41032;47.818;-3.732;2022-10-30T08:20:12;6.38;;;1.45;;
55136;SDS011;41032;47.818;-3.732;2022-10-30T08:22:50;5.68;;;1.48;;
55136;SDS011;41032;47.818;-3.732;2022-10-30T08:25:22;7.65;;;1.35;;
55136;SDS011;41032;47.818;-3.732;2022-10-30T08:27:53;5.65;;;1.20;;
55136;SDS011;41032;47.818;-3.732;2022-10-30T08:30:24;4.95;;;1.63;;
55136;SDS011;41032;47.818;-3.732;2022-10-30T08:32:55;4.55;;;1.52;;
55136;SDS011;41032;47.818;-3.732;2022-10-30T08:35:24;7.60;;;2.10;;
55136;SDS011;41032;47.818;-3.732;2022-10-30T08:37:55;6.85;;;2.53;;
55136;SDS011;41032;47.818;-3.732;2022-10-30T08:40:25;7.53;;;2.88;;
55136;SDS011;41032;47.818;-3.732;2022-10-30T08:42:54;6.57;;;2.60;;
55136;SDS011;41032;47.818;-3.732;2022-10-30T08:45:23;7.60;;;2.30;;
55136;SDS011;41032;47.818;-3.732;2022-10-30T08:47:56;7.35;;;3.28;;
55136;SDS011;41032;47.818;-3.732;2022-10-30T08:50:25;7.10;;;3.05;;
55136;SDS011;41032;47.818;-3.732;2022-10-30T08:52:53;13.05;;;3.22;;
55136;SDS011;41032;47.818;-3.732;2022-10-30T08:55:22;8.75;;;3.50;;
55136;SDS011;41032;47.818;-3.732;2022-10-30T08:57:50;6.97;;;3.25;;
55136;SDS011;41032;47.818;-3.732;2022-10-30T09:00:18;8.93;;;3.53;;
55136;SDS011;41032;47.818;-3.732;2022-10-30T09:02:47;9.20;;;3.90;;
55136;SDS011;41032;47.818;-3.732;2022-10-30T09:05:15;6.25;;;2.63;;
55136;SDS011;41032;47.818;-3.732;2022-10-30T09:07:43;8.65;;;2.72;;
55136;SDS011;41032;47.818;-3.732;2022-10-30T09:10:12;7.68;;;2.38;;
55136;SDS011;41032;47.818;-3.732;2022-10-30T09:12:40;9.98;;;3.47;;
55136;SDS011;41032;47.818;-3.732;2022-10-30T09:15:09;8.52;;;3.13;;
55136;SDS011;41032;47.818;-3.732;2022-10-30T09:17:37;8.38;;;3.45;;
55136;SDS011;41032;47.818;-3.732;2022-10-30T09:20:06;10.23;;;3.72;;
55136;SDS011;41032;47.818;-3.732;2022-10-30T09:22:38;9.88;;;3.35;;
55136;SDS011;41032;47.818;-3.732;2022-10-30T09:25:07;10.38;;;2.42;;
55136;SDS011;41032;47.818;-3.732;2022-10-30T09:27:37;9.40;;;3.13;;
55136;SDS011;41032;47.818;-3.732;2022-10-30T09:30:05;9.50;;;2.83;;
55136;SDS011;41032;47.818;-3.732;2022-10-30T09:32:34;11.80;;;2.83;;
55136;SDS011;41032;47.818;-3.732;2022-10-30T09:35:03;7.20;;;2.72;;
55136;SDS011;41032;47.818;-3.732;2022-10-30T09:37:33;12.02;;;3.20;;
55136;SDS011;41032;47.818;-3.732;2022-10-30T09:40:02;8.45;;;2.25;;
55136;SDS011;41032;47.818;-3.732;2022-10-30T09:42:50;7.25;;;2.33;;
55136;SDS011;41032;47.818;-3.732;2022-10-30T09:51:14;7.32;;;1.80;;
55136;SDS011;41032;47.818;-3.732;2022-10-30T09:53:51;6.60;;;2.00;;
55136;SDS011;41032;47.818;-3.732;2022-10-30T09:56:26;5.32;;;1.73;;
55136;SDS011;41032;47.818;-3.732;2022-10-30T10:01:39;10.60;;;2.33;;
55136;SDS011;41032;47.818;-3.732;2022-10-30T10:04:55;5.45;;;1.77;;
55136;SDS011;41032;47.818;-3.732;2022-10-30T10:07:08;9.05;;;1.85;;
55136;SDS011;41032;47.818;-3.732;2022-10-30T10:09:50;4.80;;;1.30;;
55136;SDS011;41032;47.818;-3.732;2022-10-30T10:12:22;4.05;;;1.35;;
55136;SDS011;41032;47.818;-3.732;2022-10-30T10:14:55;7.93;;;2.05;;
55136;SDS011;41032;47.818;-3.732;2022-10-30T10:17:25;6.20;;;1.67;;
55136;SDS011;41032;47.818;-3.732;2022-10-30T10:19:58;6.22;;;1.88;;
55136;SDS011;41032;47.818;-3.732;2022-10-30T10:22:47;7.07;;;1.60;;
55136;SDS011;41032;47.818;-3.732;2022-10-30T10:25:15;6.85;;;1.58;;
55136;SDS011;41032;47.818;-3.732;2022-10-30T10:27:51;8.32;;;2.22;;
55136;SDS011;41032;47.818;-3.732;2022-10-30T10:31:00;6.53;;;1.73;;
55136;SDS011;41032;47.818;-3.732;2022-10-30T10:34:27;7.30;;;1.50;;
55136;SDS011;41032;47.818;-3.732;2022-10-30T10:40:11;4.78;;;1.35;;
55136;SDS011;41032;47.818;-3.732;2022-10-30T10:42:34;6.75;;;1.50;;
55136;SDS011;41032;47.818;-3.732;2022-10-30T10:48:40;5.20;;;1.30;;
55136;SDS011;41032;47.818;-3.732;2022-10-30T10:50:55;5.10;;;1.55;;
55136;SDS011;41032;47.818;-3.732;2022-10-30T10:56:04;5.47;;;1.77;;
55136;SDS011;41032;47.818;-3.732;2022-10-30T10:58:38;6.00;;;1.60;;
55136;SDS011;41032;47.818;-3.732;2022-10-30T11:01:16;3.30;;;1.13;;
55136;SDS011;41032;47.818;-3.732;2022-10-30T11:03:49;4.40;;;1.30;;
55136;SDS011;41032;47.818;-3.732;2022-10-30T11:06:20;3.33;;;1.10;;
55136;SDS011;41032;47.818;-3.732;2022-10-30T11:08:51;6.18;;;1.40;;
55136;SDS011;41032;47.818;-3.732;2022-10-30T11:11:20;6.90;;;1.85;;
55136;SDS011;41032;47.818;-3.732;2022-10-30T11:13:53;4.00;;;1.40;;
55136;SDS011;41032;47.818;-3.732;2022-10-30T11:19:13;6.93;;;1.45;;
55136;SDS011;41032;47.818;-3.732;2022-10-30T11:21:42;7.60;;;1.75;;
55136;SDS011;41032;47.818;-3.732;2022-10-30T11:24:33;8.35;;;1.60;;
55136;SDS011;41032;47.818;-3.732;2022-10-30T11:27:15;5.10;;;1.83;;
55136;SDS011;41032;47.818;-3.732;2022-10-30T11:29:51;6.72;;;1.52;;
55136;SDS011;41032;47.818;-3.732;2022-10-30T11:32:26;9.15;;;1.90;;
55136;SDS011;41032;47.818;-3.732;2022-10-30T11:35:15;8.77;;;1.98;;
55136;SDS011;41032;47.818;-3.732;2022-10-30T11:37:43;6.95;;;1.80;;
55136;SDS011;41032;47.818;-3.732;2022-10-30T11:42:40;8.45;;;2.08;;
55136;SDS011;41032;47.818;-3.732;2022-10-30T11:45:19;7.85;;;1.83;;
55136;SDS011;41032;47.818;-3.732;2022-10-30T11:47:56;9.35;;;1.92;;
55136;SDS011;41032;47.818;-3.732;2022-10-30T11:50:26;8.90;;;2.42;;
55136;SDS011;41032;47.818;-3.732;2022-10-30T11:52:56;7.93;;;2.33;;
55136;SDS011;41032;47.818;-3.732;2022-10-30T11:55:47;8.98;;;1.90;;
55136;SDS011;41032;47.818;-3.732;2022-10-30T11:58:20;7.65;;;1.88;;
55136;SDS011;41032;47.818;-3.732;2022-10-30T12:01:00;9.40;;;2.33;;
55136;SDS011;41032;47.818;-3.732;2022-10-30T12:03:35;7.30;;;2.08;;
55136;SDS011;41032;47.818;-3.732;2022-10-30T12:06:06;7.75;;;1.73;;
55136;SDS011;41032;47.818;-3.732;2022-10-30T12:08:58;6.00;;;1.83;;
55136;SDS011;41032;47.818;-3.732;2022-10-30T12:11:45;6.72;;;1.92;;
55136;SDS011;41032;47.818;-3.732;2022-10-30T12:14:19;7.63;;;1.83;;
55136;SDS011;41032;47.818;-3.732;2022-10-30T12:16:50;7.38;;;1.50;;
55136;SDS011;41032;47.818;-3.732;2022-10-30T12:19:20;8.88;;;2.17;;
55136;SDS011;41032;47.818;-3.732;2022-10-30T12:21:50;8.65;;;1.77;;
55136;SDS011;41032;47.818;-3.732;2022-10-30T12:24:20;5.70;;;1.58;;
55136;SDS011;41032;47.818;-3.732;2022-10-30T12:26:54;10.23;;;2.25;;
55136;SDS011;41032;47.818;-3.732;2022-10-30T12:29:24;6.50;;;1.98;;
55136;SDS011;41032;47.818;-3.732;2022-10-30T12:32:01;4.55;;;1.48;;
55136;SDS011;41032;47.818;-3.732;2022-10-30T12:37:05;8.95;;;2.15;;
55136;SDS011;41032;47.818;-3.732;2022-10-30T12:42:30;12.02;;;2.83;;
55136;SDS011;41032;47.818;-3.732;2022-10-30T12:45:05;7.05;;;1.60;;
55136;SDS011;41032;47.818;-3.732;2022-10-30T12:47:41;8.07;;;2.00;;
55136;SDS011;41032;47.818;-3.732;2022-10-30T12:50:41;8.88;;;2.13;;
55136;SDS011;41032;47.818;-3.732;2022-10-30T12:56:06;11.55;;;2.45;;
55136;SDS011;41032;47.818;-3.732;2022-10-30T13:04:21;6.90;;;1.75;;
55136;SDS011;41032;47.818;-3.732;2022-10-30T13:09:46;10.05;;;2.63;;
55136;SDS011;41032;47.818;-3.732;2022-10-30T13:12:30;7.47;;;2.10;;
55136;SDS011;41032;47.818;-3.732;2022-10-30T13:15:02;11.18;;;3.30;;
55136;SDS011;41032;47.818;-3.732;2022-10-30T13:17:50;12.90;;;3.08;;
55136;SDS011;41032;47.818;-3.732;2022-10-30T13:20:18;14.18;;;2.90;;
55136;SDS011;41032;47.818;-3.732;2022-10-30T13:22:48;10.52;;;2.95;;
55136;SDS011;41032;47.818;-3.732;2022-10-30T13:25:23;11.82;;;3.58;;
55136;SDS011;41032;47.818;-3.732;2022-10-30T13:27:59;19.23;;;3.55;;
55136;SDS011;41032;47.818;-3.732;2022-10-30T13:36:08;9.88;;;2.45;;
55136;SDS011;41032;47.818;-3.732;2022-10-30T13:38:53;10.50;;;2.95;;
55136;SDS011;41032;47.818;-3.732;2022-10-30T13:41:27;14.73;;;3.22;;
55136;SDS011;41032;47.818;-3.732;2022-10-30T13:57:24;8.00;;;2.47;;
55136;SDS011;41032;47.818;-3.732;2022-10-30T14:03:10;9.73;;;2.03;;
55136;SDS011;41032;47.818;-3.732;2022-10-30T14:10:59;9.65;;;2.45;;
55136;SDS011;41032;47.818;-3.732;2022-10-30T14:17:22;6.75;;;1.85;;
55136;SDS011;41032;47.818;-3.732;2022-10-30T14:19:11;7.95;;;1.85;;
55136;SDS011;41032;47.818;-3.732;2022-10-30T14:26:50;9.43;;;2.63;;
55136;SDS011;41032;47.818;-3.732;2022-10-30T14:29:40;6.43;;;2.00;;
55136;SDS011;41032;47.818;-3.732;2022-10-30T14:34:44;5.40;;;1.67;;
55136;SDS011;41032;47.818;-3.732;2022-10-30T14:37:17;10.30;;;2.78;;
55136;SDS011;41032;47.818;-3.732;2022-10-30T14:43:02;7.68;;;1.75;;
55136;SDS011;41032;47.818;-3.732;2022-10-30T14:45:45;8.05;;;2.28;;
55136;SDS011;41032;47.818;-3.732;2022-10-30T14:48:39;9.02;;;2.70;;
55136;SDS011;41032;47.818;-3.732;2022-10-30T14:56:30;8.00;;;1.95;;
55136;SDS011;41032;47.818;-3.732;2022-10-30T14:59:21;7.70;;;2.40;;
55136;SDS011;41032;47.818;-3.732;2022-10-30T15:10:31;8.75;;;2.45;;
55136;SDS011;41032;47.818;-3.732;2022-10-30T15:13:35;8.20;;;2.45;;
55136;SDS011;41032;47.818;-3.732;2022-10-30T15:16:11;9.52;;;1.85;;
55136;SDS011;41032;47.818;-3.732;2022-10-30T15:18:39;8.93;;;2.03;;
55136;SDS011;41032;47.818;-3.732;2022-10-30T15:21:07;5.75;;;1.60;;
55136;SDS011;41032;47.818;-3.732;2022-10-30T15:23:46;11.05;;;2.17;;
55136;SDS011;41032;47.818;-3.732;2022-10-30T15:26:25;7.30;;;2.20;;
55136;SDS011;41032;47.818;-3.732;2022-10-30T15:28:57;7.28;;;2.00;;
55136;SDS011;41032;47.818;-3.732;2022-10-30T15:31:26;8.30;;;2.20;;
55136;SDS011;41032;47.818;-3.732;2022-10-30T15:33:55;6.43;;;1.75;;
55136;SDS011;41032;47.818;-3.732;2022-10-30T15:36:25;9.77;;;2.55;;
55136;SDS011;41032;47.818;-3.732;2022-10-30T15:39:14;8.70;;;1.70;;
55136;SDS011;41032;47.818;-3.732;2022-10-30T15:41:46;7.30;;;2.20;;
55136;SDS011;41032;47.818;-3.732;2022-10-30T15:47:43;6.82;;;1.65;;
55136;SDS011;41032;47.818;-3.732;2022-10-30T15:50:14;9.95;;;2.05;;
55136;SDS011;41032;47.818;-3.732;2022-10-30T15:52:42;7.22;;;2.15;;
55136;SDS011;41032;47.818;-3.732;2022-10-30T15:55:12;7.88;;;1.70;;
55136;SDS011;41032;47.818;-3.732;2022-10-30T15:57:43;7.97;;;2.10;;
55136;SDS011;41032;47.818;-3.732;2022-10-30T16:00:18;11.20;;;2.03;;
55136;SDS011;41032;47.818;-3.732;2022-10-30T16:02:48;7.82;;;2.13;;
55136;SDS011;41032;47.818;-3.732;2022-10-30T16:05:45;7.43;;;1.80;;
55136;SDS011;41032;47.818;-3.732;2022-10-30T16:08:22;12.48;;;2.47;;
55136;SDS011;41032;47.818;-3.732;2022-10-30T16:10:51;6.05;;;2.15;;
55136;SDS011;41032;47.818;-3.732;2022-10-30T16:13:22;6.45;;;1.73;;
55136;SDS011;41032;47.818;-3.732;2022-10-30T16:15:54;6.65;;;1.63;;
55136;SDS011;41032;47.818;-3.732;2022-10-30T16:18:23;10.30;;;2.42;;
55136;SDS011;41032;47.818;-3.732;2022-10-30T16:20:53;6.88;;;1.88;;
55136;SDS011;41032;47.818;-3.732;2022-10-30T16:23:22;8.38;;;2.10;;
55136;SDS011;41032;47.818;-3.732;2022-10-30T16:25:58;10.80;;;2.20;;
55136;SDS011;41032;47.818;-3.732;2022-10-30T16:28:27;14.93;;;2.30;;
55136;SDS011;41032;47.818;-3.732;2022-10-30T16:30:57;6.90;;;1.92;;
55136;SDS011;41032;47.818;-3.732;2022-10-30T16:33:27;6.40;;;2.03;;
55136;SDS011;41032;47.818;-3.732;2022-10-30T16:35:55;7.82;;;2.20;;
55136;SDS011;41032;47.818;-3.732;2022-10-30T16:38:23;8.85;;;2.05;;
55136;SDS011;41032;47.818;-3.732;2022-10-30T16:40:51;7.63;;;1.95;;
55136;SDS011;41032;47.818;-3.732;2022-10-30T16:43:29;11.45;;;1.92;;
55136;SDS011;41032;47.818;-3.732;2022-10-30T16:49:04;11.75;;;3.58;;
55136;SDS011;41032;47.818;-3.732;2022-10-30T16:51:34;9.95;;;2.97;;
55136;SDS011;41032;47.818;-3.732;2022-10-30T16:54:04;7.93;;;2.63;;
55136;SDS011;41032;47.818;-3.732;2022-10-30T16:56:40;11.98;;;4.28;;
55136;SDS011;41032;47.818;-3.732;2022-10-30T16:59:15;10.50;;;2.50;;
55136;SDS011;41032;47.818;-3.732;2022-10-30T17:01:53;10.32;;;2.97;;
55136;SDS011;41032;47.818;-3.732;2022-10-30T17:04:23;10.40;;;3.20;;
55136;SDS011;41032;47.818;-3.732;2022-10-30T17:07:00;6.40;;;2.30;;
55136;SDS011;41032;47.818;-3.732;2022-10-30T17:09:33;10.25;;;2.40;;
55136;SDS011;41032;47.818;-3.732;2022-10-30T17:19:58;6.78;;;2.17;;
55136;SDS011;41032;47.818;-3.732;2022-10-30T17:22:29;7.85;;;2.17;;
55136;SDS011;41032;47.818;-3.732;2022-10-30T17:24:57;6.10;;;1.95;;
55136;SDS011;41032;47.818;-3.732;2022-10-30T17:29:55;13.10;;;2.83;;
55136;SDS011;41032;47.818;-3.732;2022-10-30T17:32:24;9.48;;;2.38;;
55136;SDS011;41032;47.818;-3.732;2022-10-30T17:34:56;8.55;;;2.03;;